sensor_id;sensor_type;location;lat;lon;timestamp;P1;durP1;ratioP1;P2;durP2;ratioP2
77010;SDS011;65945;53.148;17.956;2023-02-28T00:00:14;21.60;;;8.00;;
77010;SDS011;65945;53.148;17.956;2023-02-28T00:03:00;25.70;;;8.10;;
77010;SDS011;65945;53.148;17.956;2023-02-28T00:05:28;20.80;;;8.40;;
77010;SDS011;65945;53.148;17.956;2023-02-28T00:07:55;18.40;;;6.70;;
77010;SDS011;65945;53.148;17.956;2023-02-28T00:10:23;22.70;;;7.80;;
77010;SDS011;65945;53.148;17.956;2023-02-28T00:12:53;24.40;;;7.90;;
77010;SDS011;65945;53.148;17.956;2023-02-28T00:15:23;21.80;;;7.80;;
77010;SDS011;65945;53.148;17.956;2023-02-28T00:17:50;17.90;;;7.80;;
77010;SDS011;65945;53.148;17.956;2023-02-28T00:20:17;22.80;;;9.20;;
77010;SDS011;65945;53.148;17.956;2023-02-28T00:22:45;25.30;;;9.30;;
77010;SDS011;65945;53.148;17.956;2023-02-28T00:25:15;24.50;;;8.80;;
77010;SDS011;65945;53.148;17.956;2023-02-28T00:27:44;18.60;;;8.30;;
77010;SDS011;65945;53.148;17.956;2023-02-28T00:30:12;21.90;;;8.20;;
77010;SDS011;65945;53.148;17.956;2023-02-28T00:32:41;23.20;;;8.60;;
77010;SDS011;65945;53.148;17.956;2023-02-28T00:35:09;26.20;;;8.50;;
77010;SDS011;65945;53.148;17.956;2023-02-28T00:37:37;26.10;;;8.80;;
77010;SDS011;65945;53.148;17.956;2023-02-28T00:40:05;20.90;;;8.70;;
77010;SDS011;65945;53.148;17.956;2023-02-28T00:42:34;23.20;;;8.10;;
77010;SDS011;65945;53.148;17.956;2023-02-28T00:45:01;18.90;;;8.20;;
77010;SDS011;65945;53.148;17.956;2023-02-28T00:47:30;22.90;;;7.80;;
77010;SDS011;65945;53.148;17.956;2023-02-28T00:49:57;22.50;;;8.30;;
77010;SDS011;65945;53.148;17.956;2023-02-28T00:52:24;21.30;;;8.50;;
77010;SDS011;65945;53.148;17.956;2023-02-28T00:54:51;20.60;;;8.70;;
77010;SDS011;65945;53.148;17.956;2023-02-28T00:57:17;21.50;;;8.40;;
77010;SDS011;65945;53.148;17.956;2023-02-28T00:59:44;20.30;;;8.20;;
77010;SDS011;65945;53.148;17.956;2023-02-28T01:02:11;25.30;;;8.40;;
77010;SDS011;65945;53.148;17.956;2023-02-28T01:04:37;23.00;;;8.60;;
77010;SDS011;65945;53.148;17.956;2023-02-28T01:07:04;24.40;;;9.00;;
77010;SDS011;65945;53.148;17.956;2023-02-28T01:09:30;23.70;;;8.60;;
77010;SDS011;65945;53.148;17.956;2023-02-28T01:11:58;26.70;;;8.80;;
77010;SDS011;65945;53.148;17.956;2023-02-28T01:14:25;19.50;;;8.10;;
77010;SDS011;65945;53.148;17.956;2023-02-28T01:16:51;22.60;;;7.90;;
77010;SDS011;65945;53.148;17.956;2023-02-28T01:19:18;19.50;;;7.90;;
77010;SDS011;65945;53.148;17.956;2023-02-28T01:21:44;20.20;;;8.30;;
77010;SDS011;65945;53.148;17.956;2023-02-28T01:24:12;17.90;;;7.90;;
77010;SDS011;65945;53.148;17.956;2023-02-28T01:26:39;20.60;;;7.60;;
77010;SDS011;65945;53.148;17.956;2023-02-28T01:29:07;22.50;;;8.60;;
77010;SDS011;65945;53.148;17.956;2023-02-28T01:31:34;21.20;;;8.20;;
77010;SDS011;65945;53.148;17.956;2023-02-28T01:34:00;19.80;;;8.00;;
77010;SDS011;65945;53.148;17.956;2023-02-28T01:36:28;23.40;;;7.70;;
77010;SDS011;65945;53.148;17.956;2023-02-28T01:38:56;21.90;;;7.60;;
77010;SDS011;65945;53.148;17.956;2023-02-28T01:41:24;24.30;;;8.70;;
77010;SDS011;65945;53.148;17.956;2023-02-28T01:46:34;22.40;;;8.50;;
77010;SDS011;65945;53.148;17.956;2023-02-28T01:49:04;27.50;;;9.30;;
77010;SDS011;65945;53.148;17.956;2023-02-28T01:51:45;25.40;;;8.90;;
77010;SDS011;65945;53.148;17.956;2023-02-28T01:54:19;24.20;;;8.50;;
77010;SDS011;65945;53.148;17.956;2023-02-28T01:56:51;20.90;;;8.70;;
77010;SDS011;65945;53.148;17.956;2023-02-28T01:59:29;21.70;;;7.70;;
77010;SDS011;65945;53.148;17.956;2023-02-28T02:02:01;28.00;;;8.60;;
77010;SDS011;65945;53.148;17.956;2023-02-28T02:04:32;24.90;;;8.80;;
77010;SDS011;65945;53.148;17.956;2023-02-28T02:07:10;24.60;;;8.40;;
77010;SDS011;65945;53.148;17.956;2023-02-28T02:09:39;24.70;;;8.90;;
77010;SDS011;65945;53.148;17.956;2023-02-28T02:12:10;27.70;;;9.20;;
77010;SDS011;65945;53.148;17.956;2023-02-28T02:15:24;21.20;;;8.70;;
77010;SDS011;65945;53.148;17.956;2023-02-28T02:17:48;23.90;;;8.90;;
77010;SDS011;65945;53.148;17.956;2023-02-28T02:23:09;21.90;;;8.30;;
77010;SDS011;65945;53.148;17.956;2023-02-28T02:25:44;25.40;;;9.30;;
77010;SDS011;65945;53.148;17.956;2023-02-28T02:36:36;22.40;;;9.20;;
77010;SDS011;65945;53.148;17.956;2023-02-28T02:41:46;25.00;;;9.40;;
77010;SDS011;65945;53.148;17.956;2023-02-28T02:44:27;29.10;;;10.10;;
77010;SDS011;65945;53.148;17.956;2023-02-28T02:47:12;23.80;;;9.50;;
77010;SDS011;65945;53.148;17.956;2023-02-28T02:49:43;23.00;;;8.60;;
77010;SDS011;65945;53.148;17.956;2023-02-28T02:52:15;23.30;;;9.90;;
77010;SDS011;65945;53.148;17.956;2023-02-28T02:54:48;24.40;;;9.90;;
77010;SDS011;65945;53.148;17.956;2023-02-28T02:57:22;27.00;;;9.60;;
77010;SDS011;65945;53.148;17.956;2023-02-28T02:59:53;24.30;;;10.20;;
77010;SDS011;65945;53.148;17.956;2023-02-28T03:02:22;22.00;;;9.80;;
77010;SDS011;65945;53.148;17.956;2023-02-28T03:04:53;25.10;;;9.40;;
77010;SDS011;65945;53.148;17.956;2023-02-28T03:07:27;33.50;;;10.20;;
77010;SDS011;65945;53.148;17.956;2023-02-28T03:09:55;24.30;;;9.90;;
77010;SDS011;65945;53.148;17.956;2023-02-28T03:12:26;28.60;;;9.80;;
77010;SDS011;65945;53.148;17.956;2023-02-28T03:15:07;23.00;;;10.40;;
77010;SDS011;65945;53.148;17.956;2023-02-28T03:20:41;29.80;;;10.10;;
77010;SDS011;65945;53.148;17.956;2023-02-28T03:23:42;28.70;;;11.20;;
77010;SDS011;65945;53.148;17.956;2023-02-28T03:26:20;30.10;;;11.90;;
77010;SDS011;65945;53.148;17.956;2023-02-28T03:29:02;34.60;;;11.30;;
77010;SDS011;65945;53.148;17.956;2023-02-28T03:31:37;27.90;;;10.30;;
77010;SDS011;65945;53.148;17.956;2023-02-28T03:34:08;30.00;;;10.70;;
77010;SDS011;65945;53.148;17.956;2023-02-28T03:36:41;25.20;;;10.10;;
77010;SDS011;65945;53.148;17.956;2023-02-28T03:39:13;28.50;;;11.10;;
77010;SDS011;65945;53.148;17.956;2023-02-28T03:41:45;31.90;;;10.80;;
77010;SDS011;65945;53.148;17.956;2023-02-28T03:44:22;32.80;;;11.20;;
77010;SDS011;65945;53.148;17.956;2023-02-28T03:46:59;24.10;;;10.60;;
77010;SDS011;65945;53.148;17.956;2023-02-28T03:49:31;28.30;;;11.50;;
77010;SDS011;65945;53.148;17.956;2023-02-28T03:52:03;28.50;;;11.40;;
77010;SDS011;65945;53.148;17.956;2023-02-28T03:54:41;30.50;;;11.50;;
77010;SDS011;65945;53.148;17.956;2023-02-28T04:00:17;30.50;;;12.40;;
77010;SDS011;65945;53.148;17.956;2023-02-28T04:02:57;30.70;;;11.30;;
77010;SDS011;65945;53.148;17.956;2023-02-28T04:05:25;30.40;;;11.50;;
77010;SDS011;65945;53.148;17.956;2023-02-28T04:07:52;34.40;;;11.70;;
77010;SDS011;65945;53.148;17.956;2023-02-28T04:10:20;28.60;;;12.50;;
77010;SDS011;65945;53.148;17.956;2023-02-28T04:12:47;33.50;;;13.20;;
77010;SDS011;65945;53.148;17.956;2023-02-28T04:15:13;33.20;;;14.20;;
77010;SDS011;65945;53.148;17.956;2023-02-28T04:17:40;30.50;;;13.30;;
77010;SDS011;65945;53.148;17.956;2023-02-28T04:20:07;39.70;;;14.00;;
77010;SDS011;65945;53.148;17.956;2023-02-28T04:22:36;32.10;;;11.80;;
77010;SDS011;65945;53.148;17.956;2023-02-28T04:25:03;30.40;;;13.00;;
77010;SDS011;65945;53.148;17.956;2023-02-28T04:27:31;33.30;;;12.40;;
77010;SDS011;65945;53.148;17.956;2023-02-28T04:29:58;32.30;;;13.10;;
77010;SDS011;65945;53.148;17.956;2023-02-28T04:32:25;31.40;;;13.60;;
77010;SDS011;65945;53.148;17.956;2023-02-28T04:34:51;28.00;;;12.30;;
77010;SDS011;65945;53.148;17.956;2023-02-28T04:37:18;31.40;;;12.30;;
77010;SDS011;65945;53.148;17.956;2023-02-28T04:39:45;31.60;;;12.40;;
77010;SDS011;65945;53.148;17.956;2023-02-28T04:42:12;29.20;;;11.90;;
77010;SDS011;65945;53.148;17.956;2023-02-28T04:44:39;37.30;;;12.60;;
77010;SDS011;65945;53.148;17.956;2023-02-28T04:47:06;36.90;;;13.20;;
77010;SDS011;65945;53.148;17.956;2023-02-28T04:49:32;34.70;;;13.30;;
77010;SDS011;65945;53.148;17.956;2023-02-28T04:51:59;34.90;;;13.50;;
77010;SDS011;65945;53.148;17.956;2023-02-28T04:54:26;30.50;;;12.50;;
77010;SDS011;65945;53.148;17.956;2023-02-28T04:56:52;31.60;;;13.20;;
77010;SDS011;65945;53.148;17.956;2023-02-28T04:59:19;34.50;;;13.80;;
77010;SDS011;65945;53.148;17.956;2023-02-28T05:01:47;33.20;;;13.20;;
77010;SDS011;65945;53.148;17.956;2023-02-28T05:04:15;33.70;;;13.60;;
77010;SDS011;65945;53.148;17.956;2023-02-28T05:06:42;30.50;;;12.30;;
77010;SDS011;65945;53.148;17.956;2023-02-28T05:09:09;30.70;;;12.20;;
77010;SDS011;65945;53.148;17.956;2023-02-28T05:11:38;32.00;;;12.80;;
77010;SDS011;65945;53.148;17.956;2023-02-28T05:14:06;35.60;;;13.50;;
77010;SDS011;65945;53.148;17.956;2023-02-28T05:16:36;35.50;;;13.20;;
77010;SDS011;65945;53.148;17.956;2023-02-28T05:19:03;32.70;;;13.10;;
77010;SDS011;65945;53.148;17.956;2023-02-28T05:24:01;33.30;;;13.40;;
77010;SDS011;65945;53.148;17.956;2023-02-28T05:26:30;34.80;;;13.90;;
77010;SDS011;65945;53.148;17.956;2023-02-28T05:29:00;29.50;;;12.80;;
77010;SDS011;65945;53.148;17.956;2023-02-28T05:31:27;30.80;;;12.80;;
77010;SDS011;65945;53.148;17.956;2023-02-28T05:33:53;30.40;;;13.60;;
77010;SDS011;65945;53.148;17.956;2023-02-28T05:36:20;37.40;;;13.90;;
77010;SDS011;65945;53.148;17.956;2023-02-28T05:38:47;41.20;;;17.50;;
77010;SDS011;65945;53.148;17.956;2023-02-28T05:41:15;42.40;;;16.40;;
77010;SDS011;65945;53.148;17.956;2023-02-28T05:43:43;38.00;;;15.70;;
77010;SDS011;65945;53.148;17.956;2023-02-28T05:46:10;32.40;;;12.90;;
77010;SDS011;65945;53.148;17.956;2023-02-28T05:48:37;38.80;;;13.70;;
77010;SDS011;65945;53.148;17.956;2023-02-28T05:51:06;42.60;;;12.70;;
77010;SDS011;65945;53.148;17.956;2023-02-28T05:53:33;32.00;;;13.60;;
77010;SDS011;65945;53.148;17.956;2023-02-28T05:56:01;43.00;;;14.90;;
77010;SDS011;65945;53.148;17.956;2023-02-28T05:58:28;32.30;;;14.50;;
77010;SDS011;65945;53.148;17.956;2023-02-28T06:00:57;38.30;;;14.30;;
77010;SDS011;65945;53.148;17.956;2023-02-28T06:03:25;36.60;;;13.70;;
77010;SDS011;65945;53.148;17.956;2023-02-28T06:05:53;40.80;;;14.00;;
77010;SDS011;65945;53.148;17.956;2023-02-28T06:08:20;28.90;;;12.90;;
77010;SDS011;65945;53.148;17.956;2023-02-28T06:10:46;41.30;;;15.10;;
77010;SDS011;65945;53.148;17.956;2023-02-28T06:13:13;36.30;;;14.90;;
77010;SDS011;65945;53.148;17.956;2023-02-28T06:15:40;33.10;;;13.60;;
77010;SDS011;65945;53.148;17.956;2023-02-28T06:18:07;40.90;;;13.70;;
77010;SDS011;65945;53.148;17.956;2023-02-28T06:20:33;34.30;;;14.40;;
77010;SDS011;65945;53.148;17.956;2023-02-28T06:23:02;45.80;;;16.90;;
77010;SDS011;65945;53.148;17.956;2023-02-28T06:25:29;39.30;;;16.20;;
77010;SDS011;65945;53.148;17.956;2023-02-28T06:27:55;55.60;;;22.20;;
77010;SDS011;65945;53.148;17.956;2023-02-28T06:30:22;69.40;;;28.20;;
77010;SDS011;65945;53.148;17.956;2023-02-28T06:32:51;58.80;;;21.40;;
77010;SDS011;65945;53.148;17.956;2023-02-28T06:35:19;66.60;;;22.10;;
77010;SDS011;65945;53.148;17.956;2023-02-28T06:37:46;50.10;;;20.70;;
77010;SDS011;65945;53.148;17.956;2023-02-28T06:40:13;73.90;;;26.60;;
77010;SDS011;65945;53.148;17.956;2023-02-28T06:42:40;49.30;;;19.60;;
77010;SDS011;65945;53.148;17.956;2023-02-28T06:45:08;39.20;;;14.90;;
77010;SDS011;65945;53.148;17.956;2023-02-28T06:47:36;40.00;;;15.90;;
77010;SDS011;65945;53.148;17.956;2023-02-28T06:50:04;52.10;;;20.50;;
77010;SDS011;65945;53.148;17.956;2023-02-28T06:52:32;73.10;;;28.60;;
77010;SDS011;65945;53.148;17.956;2023-02-28T06:54:59;69.10;;;26.70;;
77010;SDS011;65945;53.148;17.956;2023-02-28T06:57:29;70.80;;;29.50;;
77010;SDS011;65945;53.148;17.956;2023-02-28T06:59:59;94.10;;;37.30;;
77010;SDS011;65945;53.148;17.956;2023-02-28T07:02:29;67.20;;;25.90;;
77010;SDS011;65945;53.148;17.956;2023-02-28T07:04:55;47.60;;;20.60;;
77010;SDS011;65945;53.148;17.956;2023-02-28T07:07:22;73.90;;;26.70;;
77010;SDS011;65945;53.148;17.956;2023-02-28T07:09:49;53.10;;;23.00;;
77010;SDS011;65945;53.148;17.956;2023-02-28T07:12:15;53.70;;;22.20;;
77010;SDS011;65945;53.148;17.956;2023-02-28T07:14:42;75.90;;;30.20;;
77010;SDS011;65945;53.148;17.956;2023-02-28T07:17:09;66.20;;;28.10;;
77010;SDS011;65945;53.148;17.956;2023-02-28T07:19:38;91.90;;;36.20;;
77010;SDS011;65945;53.148;17.956;2023-02-28T07:22:06;112.10;;;41.60;;
77010;SDS011;65945;53.148;17.956;2023-02-28T07:24:33;77.80;;;31.10;;
77010;SDS011;65945;53.148;17.956;2023-02-28T07:27:00;65.80;;;28.10;;
77010;SDS011;65945;53.148;17.956;2023-02-28T07:29:27;76.30;;;31.00;;
77010;SDS011;65945;53.148;17.956;2023-02-28T07:31:55;67.80;;;29.90;;
77010;SDS011;65945;53.148;17.956;2023-02-28T07:34:21;72.30;;;30.50;;
77010;SDS011;65945;53.148;17.956;2023-02-28T07:36:49;86.20;;;32.70;;
77010;SDS011;65945;53.148;17.956;2023-02-28T07:39:20;80.70;;;32.10;;
77010;SDS011;65945;53.148;17.956;2023-02-28T07:41:47;65.30;;;28.30;;
77010;SDS011;65945;53.148;17.956;2023-02-28T07:44:14;65.10;;;25.50;;
77010;SDS011;65945;53.148;17.956;2023-02-28T07:46:41;65.10;;;26.20;;
77010;SDS011;65945;53.148;17.956;2023-02-28T07:49:07;60.40;;;24.20;;
77010;SDS011;65945;53.148;17.956;2023-02-28T07:51:34;57.50;;;23.20;;
77010;SDS011;65945;53.148;17.956;2023-02-28T07:54:00;57.00;;;22.30;;
77010;SDS011;65945;53.148;17.956;2023-02-28T07:56:27;47.20;;;19.90;;
77010;SDS011;65945;53.148;17.956;2023-02-28T07:58:54;34.10;;;15.70;;
77010;SDS011;65945;53.148;17.956;2023-02-28T08:01:20;37.60;;;15.40;;
77010;SDS011;65945;53.148;17.956;2023-02-28T08:03:48;37.60;;;16.20;;
77010;SDS011;65945;53.148;17.956;2023-02-28T08:06:16;39.80;;;16.90;;
77010;SDS011;65945;53.148;17.956;2023-02-28T08:08:44;45.40;;;19.30;;
77010;SDS011;65945;53.148;17.956;2023-02-28T08:11:11;32.20;;;15.20;;
77010;SDS011;65945;53.148;17.956;2023-02-28T08:13:37;30.20;;;12.60;;
77010;SDS011;65945;53.148;17.956;2023-02-28T08:16:04;29.30;;;12.90;;
77010;SDS011;65945;53.148;17.956;2023-02-28T08:18:31;28.10;;;12.40;;
77010;SDS011;65945;53.148;17.956;2023-02-28T08:20:58;35.40;;;13.90;;
77010;SDS011;65945;53.148;17.956;2023-02-28T08:23:25;31.60;;;12.10;;
77010;SDS011;65945;53.148;17.956;2023-02-28T08:25:52;29.40;;;13.30;;
77010;SDS011;65945;53.148;17.956;2023-02-28T08:28:21;29.90;;;13.40;;
77010;SDS011;65945;53.148;17.956;2023-02-28T08:30:48;28.00;;;12.20;;
77010;SDS011;65945;53.148;17.956;2023-02-28T08:33:15;25.50;;;11.70;;
77010;SDS011;65945;53.148;17.956;2023-02-28T08:35:41;24.40;;;11.00;;
77010;SDS011;65945;53.148;17.956;2023-02-28T08:38:08;31.10;;;12.50;;
77010;SDS011;65945;53.148;17.956;2023-02-28T08:40:35;24.10;;;11.60;;
77010;SDS011;65945;53.148;17.956;2023-02-28T08:43:01;21.40;;;9.30;;
77010;SDS011;65945;53.148;17.956;2023-02-28T08:45:28;19.80;;;8.80;;
77010;SDS011;65945;53.148;17.956;2023-02-28T08:47:55;17.80;;;8.70;;
77010;SDS011;65945;53.148;17.956;2023-02-28T08:50:22;37.90;;;12.70;;
77010;SDS011;65945;53.148;17.956;2023-02-28T08:52:49;20.30;;;9.20;;
77010;SDS011;65945;53.148;17.956;2023-02-28T08:55:15;18.70;;;7.50;;
77010;SDS011;65945;53.148;17.956;2023-02-28T08:57:42;11.20;;;3.90;;
77010;SDS011;65945;53.148;17.956;2023-02-28T09:00:09;17.10;;;6.10;;
77010;SDS011;65945;53.148;17.956;2023-02-28T09:02:40;19.50;;;6.70;;
77010;SDS011;65945;53.148;17.956;2023-02-28T09:05:09;18.20;;;7.50;;
77010;SDS011;65945;53.148;17.956;2023-02-28T09:07:35;24.30;;;9.60;;
77010;SDS011;65945;53.148;17.956;2023-02-28T09:10:02;13.50;;;6.50;;
77010;SDS011;65945;53.148;17.956;2023-02-28T09:12:31;7.60;;;3.10;;
77010;SDS011;65945;53.148;17.956;2023-02-28T09:15:01;14.10;;;5.50;;
77010;SDS011;65945;53.148;17.956;2023-02-28T09:17:28;7.20;;;2.50;;
77010;SDS011;65945;53.148;17.956;2023-02-28T09:19:55;6.40;;;2.50;;
77010;SDS011;65945;53.148;17.956;2023-02-28T09:22:21;7.80;;;2.20;;
77010;SDS011;65945;53.148;17.956;2023-02-28T09:24:48;7.60;;;2.20;;
77010;SDS011;65945;53.148;17.956;2023-02-28T09:27:14;8.20;;;2.10;;
77010;SDS011;65945;53.148;17.956;2023-02-28T09:29:41;7.70;;;1.80;;
77010;SDS011;65945;53.148;17.956;2023-02-28T09:32:08;2.70;;;1.30;;
77010;SDS011;65945;53.148;17.956;2023-02-28T09:34:34;4.90;;;2.30;;
77010;SDS011;65945;53.148;17.956;2023-02-28T09:37:03;4.20;;;1.90;;
77010;SDS011;65945;53.148;17.956;2023-02-28T09:39:29;6.60;;;2.80;;
77010;SDS011;65945;53.148;17.956;2023-02-28T09:41:56;8.10;;;2.50;;
77010;SDS011;65945;53.148;17.956;2023-02-28T09:46:57;6.40;;;2.90;;
77010;SDS011;65945;53.148;17.956;2023-02-28T09:49:37;6.30;;;2.30;;
77010;SDS011;65945;53.148;17.956;2023-02-28T09:52:11;7.30;;;2.90;;
77010;SDS011;65945;53.148;17.956;2023-02-28T09:54:47;7.90;;;2.90;;
77010;SDS011;65945;53.148;17.956;2023-02-28T10:00:03;8.60;;;3.30;;
77010;SDS011;65945;53.148;17.956;2023-02-28T10:05:15;7.00;;;2.60;;
77010;SDS011;65945;53.148;17.956;2023-02-28T10:10:50;8.70;;;3.50;;
77010;SDS011;65945;53.148;17.956;2023-02-28T10:13:23;5.40;;;2.50;;
77010;SDS011;65945;53.148;17.956;2023-02-28T10:15:56;7.30;;;2.60;;
77010;SDS011;65945;53.148;17.956;2023-02-28T10:18:41;12.30;;;3.30;;
77010;SDS011;65945;53.148;17.956;2023-02-28T10:21:15;6.60;;;2.50;;
77010;SDS011;65945;53.148;17.956;2023-02-28T10:23:47;9.60;;;2.40;;
77010;SDS011;65945;53.148;17.956;2023-02-28T10:26:15;5.90;;;2.10;;
77010;SDS011;65945;53.148;17.956;2023-02-28T10:28:43;5.90;;;2.10;;
77010;SDS011;65945;53.148;17.956;2023-02-28T10:31:15;5.10;;;2.30;;
77010;SDS011;65945;53.148;17.956;2023-02-28T10:33:46;6.10;;;2.10;;
77010;SDS011;65945;53.148;17.956;2023-02-28T10:36:14;6.40;;;2.90;;
77010;SDS011;65945;53.148;17.956;2023-02-28T10:38:45;6.60;;;2.70;;
77010;SDS011;65945;53.148;17.956;2023-02-28T10:41:15;9.00;;;2.60;;
77010;SDS011;65945;53.148;17.956;2023-02-28T10:43:53;5.40;;;1.60;;
77010;SDS011;65945;53.148;17.956;2023-02-28T10:46:40;7.70;;;2.50;;
77010;SDS011;65945;53.148;17.956;2023-02-28T10:49:20;6.00;;;2.30;;
77010;SDS011;65945;53.148;17.956;2023-02-28T10:51:52;4.00;;;1.90;;
77010;SDS011;65945;53.148;17.956;2023-02-28T10:54:33;3.90;;;1.60;;
77010;SDS011;65945;53.148;17.956;2023-02-28T10:57:08;6.90;;;2.60;;
77010;SDS011;65945;53.148;17.956;2023-02-28T10:59:44;6.40;;;2.80;;
77010;SDS011;65945;53.148;17.956;2023-02-28T11:02:28;6.60;;;2.40;;
77010;SDS011;65945;53.148;17.956;2023-02-28T11:08:10;4.80;;;1.80;;
77010;SDS011;65945;53.148;17.956;2023-02-28T11:10:43;8.10;;;3.10;;
77010;SDS011;65945;53.148;17.956;2023-02-28T11:13:19;8.50;;;3.20;;
77010;SDS011;65945;53.148;17.956;2023-02-28T11:15:51;7.20;;;3.10;;
77010;SDS011;65945;53.148;17.956;2023-02-28T11:21:02;5.40;;;2.50;;
77010;SDS011;65945;53.148;17.956;2023-02-28T11:23:30;8.00;;;3.30;;
77010;SDS011;65945;53.148;17.956;2023-02-28T11:26:00;4.50;;;2.20;;
77010;SDS011;65945;53.148;17.956;2023-02-28T11:28:29;5.70;;;2.40;;
77010;SDS011;65945;53.148;17.956;2023-02-28T11:33:52;9.60;;;3.10;;
77010;SDS011;65945;53.148;17.956;2023-02-28T11:36:21;6.70;;;2.60;;
77010;SDS011;65945;53.148;17.956;2023-02-28T11:38:51;8.40;;;2.40;;
77010;SDS011;65945;53.148;17.956;2023-02-28T11:47:04;7.60;;;2.30;;
77010;SDS011;65945;53.148;17.956;2023-02-28T11:52:30;6.10;;;2.80;;
77010;SDS011;65945;53.148;17.956;2023-02-28T11:55:11;6.50;;;2.90;;
77010;SDS011;65945;53.148;17.956;2023-02-28T12:00:32;7.30;;;3.10;;
77010;SDS011;65945;53.148;17.956;2023-02-28T12:05:37;7.40;;;2.40;;
77010;SDS011;65945;53.148;17.956;2023-02-28T12:11:39;6.90;;;2.60;;
77010;SDS011;65945;53.148;17.956;2023-02-28T12:14:39;7.00;;;2.50;;
77010;SDS011;65945;53.148;17.956;2023-02-28T12:20:14;6.50;;;2.90;;
77010;SDS011;65945;53.148;17.956;2023-02-28T12:22:57;6.30;;;2.70;;
77010;SDS011;65945;53.148;17.956;2023-02-28T12:28:21;4.60;;;2.40;;
77010;SDS011;65945;53.148;17.956;2023-02-28T12:31:03;7.70;;;2.90;;
77010;SDS011;65945;53.148;17.956;2023-02-28T12:33:39;7.80;;;2.60;;
77010;SDS011;65945;53.148;17.956;2023-02-28T12:36:12;8.00;;;3.00;;
77010;SDS011;65945;53.148;17.956;2023-02-28T12:38:47;16.20;;;5.00;;
77010;SDS011;65945;53.148;17.956;2023-02-28T12:44:21;9.30;;;2.60;;
77010;SDS011;65945;53.148;17.956;2023-02-28T12:46:58;6.50;;;2.60;;
77010;SDS011;65945;53.148;17.956;2023-02-28T12:49:30;5.90;;;2.70;;
77010;SDS011;65945;53.148;17.956;2023-02-28T12:52:00;7.50;;;2.50;;
77010;SDS011;65945;53.148;17.956;2023-02-28T12:54:32;6.00;;;2.90;;
77010;SDS011;65945;53.148;17.956;2023-02-28T12:57:35;6.90;;;2.90;;
77010;SDS011;65945;53.148;17.956;2023-02-28T13:08:47;8.20;;;3.10;;
77010;SDS011;65945;53.148;17.956;2023-02-28T13:11:41;6.90;;;2.90;;
77010;SDS011;65945;53.148;17.956;2023-02-28T13:14:29;7.70;;;2.60;;
77010;SDS011;65945;53.148;17.956;2023-02-28T13:19:33;4.10;;;1.30;;
77010;SDS011;65945;53.148;17.956;2023-02-28T13:22:04;7.10;;;2.10;;
77010;SDS011;65945;53.148;17.956;2023-02-28T13:29:35;6.10;;;2.80;;
77010;SDS011;65945;53.148;17.956;2023-02-28T13:34:49;7.00;;;2.10;;
77010;SDS011;65945;53.148;17.956;2023-02-28T13:37:34;6.60;;;2.80;;
77010;SDS011;65945;53.148;17.956;2023-02-28T13:42:46;7.10;;;2.70;;
77010;SDS011;65945;53.148;17.956;2023-02-28T13:45:28;5.60;;;2.80;;
77010;SDS011;65945;53.148;17.956;2023-02-28T13:48:14;11.60;;;3.90;;
77010;SDS011;65945;53.148;17.956;2023-02-28T13:50:45;12.30;;;3.90;;
77010;SDS011;65945;53.148;17.956;2023-02-28T14:04:21;7.90;;;2.80;;
77010;SDS011;65945;53.148;17.956;2023-02-28T14:06:54;15.20;;;5.90;;
77010;SDS011;65945;53.148;17.956;2023-02-28T14:09:24;11.70;;;4.60;;
77010;SDS011;65945;53.148;17.956;2023-02-28T14:11:58;17.20;;;8.10;;
77010;SDS011;65945;53.148;17.956;2023-02-28T14:15:03;16.70;;;9.30;;
77010;SDS011;65945;53.148;17.956;2023-02-28T14:17:51;11.00;;;5.10;;
77010;SDS011;65945;53.148;17.956;2023-02-28T14:20:20;8.60;;;3.40;;
77010;SDS011;65945;53.148;17.956;2023-02-28T14:22:53;7.80;;;2.90;;
77010;SDS011;65945;53.148;17.956;2023-02-28T14:31:09;9.70;;;4.30;;
77010;SDS011;65945;53.148;17.956;2023-02-28T14:36:33;8.50;;;3.20;;
77010;SDS011;65945;53.148;17.956;2023-02-28T14:39:15;12.10;;;4.90;;
77010;SDS011;65945;53.148;17.956;2023-02-28T14:41:45;19.30;;;7.00;;
77010;SDS011;65945;53.148;17.956;2023-02-28T14:44:30;16.10;;;5.70;;
77010;SDS011;65945;53.148;17.956;2023-02-28T14:47:01;9.90;;;3.20;;
77010;SDS011;65945;53.148;17.956;2023-02-28T14:49:42;20.10;;;8.50;;
77010;SDS011;65945;53.148;17.956;2023-02-28T14:55:23;7.10;;;2.40;;
77010;SDS011;65945;53.148;17.956;2023-02-28T14:57:55;5.50;;;2.50;;
77010;SDS011;65945;53.148;17.956;2023-02-28T15:00:27;52.40;;;23.20;;
77010;SDS011;65945;53.148;17.956;2023-02-28T15:02:56;14.80;;;6.00;;
77010;SDS011;65945;53.148;17.956;2023-02-28T15:05:28;12.40;;;5.90;;
77010;SDS011;65945;53.148;17.956;2023-02-28T15:08:01;8.60;;;4.50;;
77010;SDS011;65945;53.148;17.956;2023-02-28T15:10:31;13.10;;;5.30;;
77010;SDS011;65945;53.148;17.956;2023-02-28T15:13:00;20.10;;;9.40;;
77010;SDS011;65945;53.148;17.956;2023-02-28T15:15:36;13.70;;;7.80;;
77010;SDS011;65945;53.148;17.956;2023-02-28T15:18:19;9.40;;;5.80;;
77010;SDS011;65945;53.148;17.956;2023-02-28T15:20:55;7.60;;;4.20;;
77010;SDS011;65945;53.148;17.956;2023-02-28T15:23:25;7.00;;;2.60;;
77010;SDS011;65945;53.148;17.956;2023-02-28T15:25:52;11.70;;;5.00;;
77010;SDS011;65945;53.148;17.956;2023-02-28T15:28:20;8.00;;;3.50;;
77010;SDS011;65945;53.148;17.956;2023-02-28T15:30:53;11.90;;;4.40;;
77010;SDS011;65945;53.148;17.956;2023-02-28T15:33:47;8.50;;;4.80;;
77010;SDS011;65945;53.148;17.956;2023-02-28T15:36:28;12.40;;;6.70;;
77010;SDS011;65945;53.148;17.956;2023-02-28T15:38:58;16.00;;;6.10;;
77010;SDS011;65945;53.148;17.956;2023-02-28T15:41:29;8.50;;;3.70;;
77010;SDS011;65945;53.148;17.956;2023-02-28T15:44:14;18.40;;;7.40;;
77010;SDS011;65945;53.148;17.956;2023-02-28T15:47:03;25.70;;;10.30;;
77010;SDS011;65945;53.148;17.956;2023-02-28T15:49:39;22.40;;;12.20;;
77010;SDS011;65945;53.148;17.956;2023-02-28T15:52:15;40.50;;;17.70;;
77010;SDS011;65945;53.148;17.956;2023-02-28T15:54:44;48.30;;;18.90;;
77010;SDS011;65945;53.148;17.956;2023-02-28T15:57:18;19.70;;;7.60;;
77010;SDS011;65945;53.148;17.956;2023-02-28T15:59:57;87.90;;;25.50;;
77010;SDS011;65945;53.148;17.956;2023-02-28T16:02:38;69.70;;;21.50;;
77010;SDS011;65945;53.148;17.956;2023-02-28T16:07:32;50.20;;;22.10;;
77010;SDS011;65945;53.148;17.956;2023-02-28T16:09:59;30.00;;;10.10;;
77010;SDS011;65945;53.148;17.956;2023-02-28T16:12:29;36.20;;;11.90;;
77010;SDS011;65945;53.148;17.956;2023-02-28T16:15:02;53.70;;;17.20;;
77010;SDS011;65945;53.148;17.956;2023-02-28T16:17:34;87.60;;;26.80;;
77010;SDS011;65945;53.148;17.956;2023-02-28T16:20:14;76.90;;;23.20;;
77010;SDS011;65945;53.148;17.956;2023-02-28T16:22:45;81.90;;;26.80;;
77010;SDS011;65945;53.148;17.956;2023-02-28T16:25:16;71.50;;;24.70;;
77010;SDS011;65945;53.148;17.956;2023-02-28T16:27:46;44.40;;;17.00;;
77010;SDS011;65945;53.148;17.956;2023-02-28T16:30:17;22.90;;;8.40;;
77010;SDS011;65945;53.148;17.956;2023-02-28T16:32:50;14.00;;;5.10;;
77010;SDS011;65945;53.148;17.956;2023-02-28T16:35:19;12.30;;;4.40;;
77010;SDS011;65945;53.148;17.956;2023-02-28T16:37:46;25.00;;;9.00;;